createdAt,value
2023-01-11T00:01:12.498Z,3.97
2023-01-11T00:03:39.809Z,4.03
2023-01-11T00:06:08.235Z,4.45
2023-01-11T00:08:37.838Z,4.35
2023-01-11T00:11:10.913Z,4.53
2023-01-11T00:13:40.594Z,4.03
2023-01-11T00:16:09.289Z,3.95
2023-01-11T00:18:37.325Z,3.85
2023-01-11T00:21:08.166Z,3.33
2023-01-11T00:23:36.658Z,3.87
2023-01-11T00:26:10.291Z,3.92
2023-01-11T00:28:37.574Z,4.65
2023-01-11T00:31:05.009Z,4.63
2023-01-11T00:33:34.415Z,5.80
2023-01-11T00:36:01.726Z,6.13
2023-01-11T00:38:44.018Z,6.43
2023-01-11T00:41:35.803Z,6.68
2023-01-11T00:44:23.010Z,5.97
2023-01-11T00:47:10.862Z,5.43
2023-01-11T00:49:38.303Z,5.35
2023-01-11T00:52:09.797Z,5.85
2023-01-11T00:54:38.740Z,5.28
2023-01-11T00:57:07.409Z,4.82
2023-01-11T00:59:39.613Z,4.88
2023-01-11T01:02:08.339Z,5.05
2023-01-11T01:04:35.767Z,4.72
2023-01-11T01:07:03.559Z,5.22
2023-01-11T01:09:31.281Z,4.95
2023-01-11T01:11:59.490Z,5.47
2023-01-11T01:14:28.529Z,4.88
2023-01-11T01:17:04.516Z,5.57
2023-01-11T01:19:32.252Z,5.32
2023-01-11T01:22:00.339Z,4.93
2023-01-11T01:24:28.939Z,4.82
2023-01-11T01:27:01.720Z,4.80
2023-01-11T01:29:31.526Z,4.88
2023-01-11T01:31:58.838Z,5.25
2023-01-11T01:34:26.243Z,5.13
2023-01-11T01:36:56.001Z,5.18
2023-01-11T01:39:25.653Z,5.00
2023-01-11T01:41:53.009Z,4.70
2023-01-11T01:44:48.380Z,5.00
2023-01-11T01:47:16.163Z,5.05
2023-01-11T01:49:44.977Z,4.50
2023-01-11T01:52:13.121Z,4.82
2023-01-11T01:54:43.968Z,4.75
2023-01-11T01:57:24.942Z,4.77
2023-01-11T01:59:55.205Z,4.70
2023-01-11T02:02:25.038Z,4.43
2023-01-11T02:04:56.392Z,5.35
2023-01-11T02:07:33.230Z,4.97
2023-01-11T02:10:11.736Z,4.75
2023-01-11T02:12:50.795Z,4.78
2023-01-11T02:15:19.763Z,5.20
2023-01-11T02:17:47.070Z,4.75
2023-01-11T02:20:26.870Z,4.80
2023-01-11T02:23:18.127Z,5.10
2023-01-11T02:26:11.408Z,5.60
2023-01-11T02:29:12.095Z,5.57
2023-01-11T02:31:59.681Z,5.65
2023-01-11T02:34:35.046Z,5.18
2023-01-11T02:37:26.858Z,5.40
2023-01-11T02:40:27.065Z,5.00
2023-01-11T02:43:26.685Z,5.07
2023-01-11T02:46:16.951Z,5.10
2023-01-11T02:48:55.760Z,4.82
2023-01-11T02:51:37.343Z,4.60
2023-01-11T02:54:12.537Z,5.10
2023-01-11T02:56:47.446Z,4.82
2023-01-11T02:59:23.124Z,4.72
2023-01-11T03:01:55.795Z,4.32
2023-01-11T03:04:27.953Z,4.82
2023-01-11T03:07:19.023Z,4.90
2023-01-11T03:10:17.445Z,5.22
2023-01-11T03:13:12.222Z,5.43
2023-01-11T03:16:04.521Z,4.65
2023-01-11T03:18:53.822Z,5.10
2023-01-11T03:21:36.100Z,5.45
2023-01-11T03:24:22.396Z,4.68
2023-01-11T03:27:17.592Z,4.90
2023-01-11T03:30:06.215Z,4.70
2023-01-11T03:32:45.557Z,4.72
2023-01-11T03:35:39.638Z,4.57
2023-01-11T03:38:15.967Z,4.15
2023-01-11T03:40:54.330Z,4.43
2023-01-11T03:43:26.539Z,4.43
2023-01-11T03:45:53.836Z,4.32
2023-01-11T03:48:34.790Z,4.25
2023-01-11T03:51:05.534Z,3.90
2023-01-11T03:53:38.761Z,4.20
2023-01-11T03:56:10.664Z,3.92
2023-01-11T03:58:38.109Z,6.03
2023-01-11T04:01:05.798Z,10.07
2023-01-11T04:03:35.461Z,8.80
2023-01-11T04:06:03.237Z,7.82
2023-01-11T04:08:32.824Z,7.50
2023-01-11T04:11:02.519Z,7.60
2023-01-11T04:13:29.857Z,7.07
2023-01-11T04:15:57.171Z,6.45
2023-01-11T04:18:26.648Z,6.32
2023-01-11T04:20:56.457Z,6.53
2023-01-11T04:23:23.791Z,5.43
2023-01-11T04:25:51.070Z,6.30
2023-01-11T04:28:20.589Z,5.70
2023-01-11T04:30:47.862Z,6.13
2023-01-11T04:33:18.871Z,5.30
2023-01-11T04:35:46.178Z,4.90
2023-01-11T04:38:13.467Z,5.93
2023-01-11T04:40:40.723Z,5.32
2023-01-11T04:43:08.024Z,5.32
2023-01-11T04:45:35.359Z,4.90
2023-01-11T04:48:02.799Z,6.10
2023-01-11T04:50:30.185Z,7.85
2023-01-11T04:53:01.175Z,7.45
2023-01-11T04:55:28.466Z,6.72
2023-01-11T04:57:55.715Z,7.45
2023-01-11T05:00:22.957Z,7.57
2023-01-11T05:02:52.338Z,5.80
2023-01-11T05:05:19.653Z,5.30
2023-01-11T05:07:48.758Z,6.03
2023-01-11T05:10:21.020Z,5.40
2023-01-11T05:12:48.496Z,5.65
2023-01-11T05:15:17.927Z,5.72
2023-01-11T05:17:47.693Z,5.40
2023-01-11T05:20:15.075Z,7.90
2023-01-11T05:22:42.406Z,8.65
2023-01-11T05:25:09.870Z,9.07
2023-01-11T05:27:37.103Z,7.43
2023-01-11T05:30:04.872Z,7.00
2023-01-11T05:32:34.592Z,6.85
2023-01-11T05:35:01.926Z,5.95
2023-01-11T05:37:29.928Z,5.15
2023-01-11T05:39:59.405Z,6.50
2023-01-11T05:42:26.963Z,5.18
2023-01-11T05:45:26.394Z,5.93
2023-01-11T05:47:54.125Z,5.20
2023-01-11T05:50:21.703Z,4.72
2023-01-11T05:52:48.972Z,4.40
2023-01-11T05:55:16.461Z,4.68
2023-01-11T05:57:47.154Z,4.47
2023-01-11T06:00:15.139Z,4.57
2023-01-11T06:02:44.669Z,4.80
2023-01-11T06:05:14.383Z,4.57
2023-01-11T06:07:43.885Z,4.60
2023-01-11T06:10:13.423Z,4.03
2023-01-11T06:12:43.198Z,5.45
2023-01-11T06:15:12.904Z,5.32
2023-01-11T06:17:42.648Z,6.70
2023-01-11T06:20:10.743Z,5.10
2023-01-11T06:22:40.602Z,5.07
2023-01-11T06:25:08.165Z,5.07
2023-01-11T06:27:35.433Z,4.50
2023-01-11T06:30:05.044Z,4.80
2023-01-11T06:32:34.790Z,4.75
2023-01-11T06:35:04.925Z,5.00
2023-01-11T06:37:32.210Z,4.70
2023-01-11T06:40:01.639Z,4.65
2023-01-11T06:42:28.923Z,4.75
2023-01-11T06:44:56.230Z,4.72
2023-01-11T06:47:25.815Z,4.50
2023-01-11T06:49:55.792Z,4.68
2023-01-11T06:52:25.434Z,4.35
2023-01-11T06:54:55.117Z,4.75
2023-01-11T06:57:22.407Z,4.95
2023-01-11T06:59:49.708Z,4.65
2023-01-11T07:02:17.279Z,4.72
2023-01-11T07:04:49.408Z,4.60
2023-01-11T07:07:16.797Z,4.85
2023-01-11T07:09:44.364Z,5.45
2023-01-11T07:12:11.609Z,6.22
2023-01-11T07:14:43.614Z,6.18
2023-01-11T07:17:11.083Z,6.15
2023-01-11T07:19:39.894Z,5.57
2023-01-11T07:22:07.232Z,6.05
2023-01-11T07:24:34.885Z,6.32
2023-01-11T07:27:03.145Z,6.40
2023-01-11T07:29:32.730Z,6.82
2023-01-11T07:32:00.131Z,7.25
2023-01-11T07:34:27.371Z,7.50
2023-01-11T07:36:54.634Z,7.80
2023-01-11T07:39:26.814Z,7.63
2023-01-11T07:42:17.893Z,6.43
2023-01-11T07:44:45.696Z,6.82
2023-01-11T07:47:15.293Z,6.38
2023-01-11T07:49:42.565Z,6.68
2023-01-11T07:52:09.895Z,6.78
2023-01-11T07:54:37.221Z,7.13
2023-01-11T07:57:04.532Z,6.78
2023-01-11T07:59:31.819Z,6.50
2023-01-11T08:01:59.064Z,7.53
2023-01-11T08:04:26.482Z,6.40
2023-01-11T08:06:53.751Z,6.50
2023-01-11T08:09:23.231Z,6.78
2023-01-11T08:12:09.170Z,6.93
2023-01-11T08:14:42.054Z,6.65
2023-01-11T08:17:14.922Z,5.93
2023-01-11T08:19:43.058Z,6.38
2023-01-11T08:22:10.555Z,6.30
2023-01-11T08:24:38.036Z,6.57
2023-01-11T08:27:05.469Z,6.60
2023-01-11T08:29:32.864Z,6.45
2023-01-11T08:32:00.666Z,7.32
2023-01-11T08:34:29.079Z,6.80
2023-01-11T08:36:57.655Z,6.40
2023-01-11T08:39:31.221Z,6.22
2023-01-11T08:42:03.179Z,6.75
2023-01-11T08:44:34.526Z,5.90
2023-01-11T08:47:03.633Z,5.50
2023-01-11T08:49:31.000Z,4.82
2023-01-11T08:51:58.351Z,5.20
2023-01-11T08:54:25.866Z,4.78
2023-01-11T08:56:53.216Z,4.75
2023-01-11T08:59:23.126Z,5.50
2023-01-11T09:01:50.482Z,4.60
2023-01-11T09:04:25.286Z,4.53
2023-01-11T09:06:55.409Z,4.88
2023-01-11T09:09:23.035Z,5.18
2023-01-11T09:11:57.631Z,4.85
2023-01-11T09:14:26.470Z,4.63
2023-01-11T09:16:54.959Z,5.30
2023-01-11T09:19:22.444Z,4.97
2023-01-11T09:21:50.038Z,5.00
2023-01-11T09:24:17.418Z,5.75
2023-01-11T09:26:44.742Z,5.68
2023-01-11T09:29:12.388Z,6.07
2023-01-11T09:35:31.259Z,5.75
2023-01-11T09:38:00.035Z,5.97
2023-01-11T09:40:42.082Z,6.20
2023-01-11T09:43:14.983Z,6.07
2023-01-11T09:45:51.903Z,6.05
2023-01-11T09:48:33.308Z,6.57
2023-01-11T09:51:01.779Z,6.47
2023-01-11T09:53:38.244Z,6.47
2023-01-11T09:56:12.353Z,8.23
2023-01-11T09:59:08.672Z,7.53
2023-01-11T10:01:51.044Z,7.15
2023-01-11T10:04:34.553Z,6.55
2023-01-11T10:07:14.443Z,5.88
2023-01-11T10:18:37.390Z,7.05
2023-01-11T10:19:42.478Z,6.72
2023-01-11T10:22:33.415Z,6.05
2023-01-11T10:25:11.850Z,5.78
2023-01-11T10:27:49.361Z,7.50
2023-01-11T10:30:37.035Z,7.88
2023-01-11T10:34:14.476Z,7.78
2023-01-11T10:37:09.373Z,6.20
2023-01-11T10:40:03.324Z,6.45
2023-01-11T10:42:40.630Z,6.72
2023-01-11T10:45:33.133Z,6.15
2023-01-11T10:48:24.488Z,6.30
2023-01-11T10:51:08.168Z,6.97
2023-01-11T10:53:57.880Z,6.10
2023-01-11T10:57:02.668Z,5.63
2023-01-11T11:00:01.858Z,5.88
2023-01-11T11:02:47.799Z,5.20
2023-01-11T11:05:26.958Z,6.50
2023-01-11T11:08:14.983Z,5.97
2023-01-11T11:11:04.015Z,5.68
2023-01-11T11:14:13.221Z,5.63
2023-01-11T11:16:43.618Z,6.70
2023-01-11T11:19:17.777Z,5.63
2023-01-11T11:21:50.664Z,5.32
2023-01-11T11:24:44.466Z,6.32
2023-01-11T11:27:30.307Z,5.75
2023-01-11T11:29:57.648Z,6.00
2023-01-11T11:32:52.114Z,5.40
2023-01-11T11:35:39.762Z,6.10
2023-01-11T11:38:22.631Z,5.30
2023-01-11T11:41:01.039Z,5.55
2023-01-11T11:43:28.660Z,6.28
2023-01-11T11:45:57.576Z,5.97
2023-01-11T11:48:27.808Z,5.85
2023-01-11T11:50:59.326Z,5.50
2023-01-11T11:53:58.063Z,6.20
2023-01-11T11:56:30.082Z,5.45
2023-01-11T11:58:59.611Z,6.00
2023-01-11T12:01:48.513Z,5.63
2023-01-11T12:04:38.846Z,6.25
2023-01-11T12:07:09.011Z,5.40
2023-01-11T12:09:38.721Z,5.85
2023-01-11T12:12:08.377Z,6.05
2023-01-11T12:14:37.025Z,6.00
2023-01-11T12:17:26.269Z,6.63
2023-01-11T12:19:53.702Z,6.55
2023-01-11T12:22:28.123Z,5.97
2023-01-11T12:25:21.708Z,6.22
2023-01-11T12:28:13.332Z,6.40
2023-01-11T12:31:12.944Z,6.93
2023-01-11T12:33:58.234Z,6.35
2023-01-11T12:36:46.596Z,6.60
2023-01-11T12:39:46.988Z,6.72
2023-01-11T12:42:55.771Z,7.07
2023-01-11T12:45:46.713Z,6.93
2023-01-11T12:48:53.908Z,7.30
2023-01-11T12:51:36.975Z,6.70
2023-01-11T12:54:33.974Z,6.57
2023-01-11T12:57:23.101Z,6.85
2023-01-11T13:00:34.379Z,6.57
2023-01-11T13:03:54.014Z,6.63
2023-01-11T13:06:44.772Z,6.93
2023-01-11T13:09:22.868Z,11.13
2023-01-11T13:11:52.938Z,9.02
2023-01-11T13:15:02.607Z,7.05
2023-01-11T13:17:49.410Z,6.55
2023-01-11T13:21:00.040Z,6.63
2023-01-11T13:23:51.357Z,6.97
2023-01-11T13:26:24.857Z,6.72
2023-01-11T13:29:05.439Z,6.00
2023-01-11T13:31:36.718Z,6.30
2023-01-11T13:34:22.920Z,6.97
2023-01-11T13:36:58.044Z,7.15
2023-01-11T13:39:40.812Z,6.22
2023-01-11T13:42:23.152Z,6.53
2023-01-11T13:45:03.843Z,6.05
2023-01-11T13:47:42.630Z,5.55
2023-01-11T13:50:10.366Z,5.55
2023-01-11T13:53:06.119Z,5.57
2023-01-11T13:56:10.482Z,6.43
2023-01-11T13:58:52.320Z,5.75
2023-01-11T14:01:31.301Z,5.68
2023-01-11T14:04:18.778Z,5.18
2023-01-11T14:06:58.211Z,5.88
2023-01-11T14:09:54.027Z,5.30
2023-01-11T14:12:31.337Z,6.05
2023-01-11T14:15:08.434Z,5.93
2023-01-11T14:17:56.876Z,6.57
2023-01-11T14:20:34.707Z,6.75
2023-01-11T14:23:14.066Z,6.20
2023-01-11T14:25:53.410Z,6.53
2023-01-11T14:28:51.757Z,6.47
2023-01-11T14:31:31.301Z,6.30
2023-01-11T14:34:26.650Z,6.43
2023-01-11T14:37:31.530Z,7.00
2023-01-11T14:40:17.305Z,7.88
2023-01-11T14:43:06.037Z,6.88
2023-01-11T14:45:48.424Z,6.28
2023-01-11T14:48:37.622Z,6.18
2023-01-11T14:51:33.240Z,6.03
2023-01-11T14:54:23.805Z,6.20
2023-01-11T14:56:58.852Z,5.88
2023-01-11T14:59:39.626Z,5.72
2023-01-11T15:02:15.207Z,6.22
2023-01-11T15:04:56.104Z,5.93
2023-01-11T15:07:30.981Z,7.30
2023-01-11T15:10:04.612Z,7.53
2023-01-11T15:12:37.875Z,7.07
2023-01-11T15:15:25.717Z,7.30
2023-01-11T15:18:15.936Z,7.25
2023-01-11T15:21:19.431Z,5.65
2023-01-11T15:23:50.596Z,6.40
2023-01-11T15:26:24.237Z,6.20
2023-01-11T15:29:20.990Z,6.18
2023-01-11T15:32:08.235Z,6.63
2023-01-11T15:34:43.086Z,6.30
2023-01-11T15:37:16.501Z,6.00
2023-01-11T15:40:16.602Z,5.45
2023-01-11T15:42:44.046Z,7.38
2023-01-11T15:45:34.346Z,6.72
2023-01-11T15:48:22.876Z,6.35
2023-01-11T15:51:36.736Z,6.05
2023-01-11T15:54:10.039Z,5.50
2023-01-11T15:56:58.601Z,6.30
2023-01-11T15:59:55.742Z,5.95
2023-01-11T16:02:46.076Z,5.50
2023-01-11T16:05:20.875Z,6.18
2023-01-11T16:07:56.508Z,6.20
2023-01-11T16:10:45.050Z,6.20
2023-01-11T16:14:00.891Z,5.90
2023-01-11T16:16:35.937Z,6.78
2023-01-11T16:19:15.401Z,12.48
2023-01-11T16:21:45.327Z,9.73
2023-01-11T16:24:22.157Z,7.75
2023-01-11T16:27:03.164Z,6.38
2023-01-11T16:29:36.286Z,6.33
2023-01-11T16:32:06.726Z,6.13
2023-01-11T16:34:43.327Z,5.85
2023-01-11T16:37:28.821Z,5.55
2023-01-11T16:40:16.111Z,6.25
2023-01-11T16:42:55.472Z,6.05
2023-01-11T16:45:39.745Z,6.07
2023-01-11T16:48:18.453Z,6.30
2023-01-11T16:51:06.976Z,6.40
2023-01-11T16:53:47.055Z,6.80
2023-01-11T16:56:21.454Z,6.32
2023-01-11T16:59:07.610Z,6.30
2023-01-11T17:01:58.743Z,6.43
2023-01-11T17:04:31.141Z,6.18
2023-01-11T17:07:27.746Z,6.18
2023-01-11T17:10:16.703Z,5.68
2023-01-11T17:12:47.241Z,5.53
2023-01-11T17:15:29.740Z,5.65
2023-01-11T17:18:03.975Z,6.28
2023-01-11T17:20:32.389Z,5.45
2023-01-11T17:23:00.134Z,5.47
2023-01-11T17:25:43.793Z,4.93
2023-01-11T17:28:19.894Z,4.95
2023-01-11T17:30:53.389Z,5.18
2023-01-11T17:33:32.372Z,4.85
2023-01-11T17:36:01.136Z,5.20
2023-01-11T17:38:29.939Z,5.35
2023-01-11T17:41:01.387Z,8.57
2023-01-11T17:43:48.814Z,7.75
2023-01-11T17:46:20.666Z,6.75
2023-01-11T17:51:29.581Z,6.47
2023-01-11T17:53:57.100Z,6.50
2023-01-11T17:56:59.076Z,8.25
2023-01-11T17:59:28.146Z,11.90
2023-01-11T18:01:58.191Z,19.75
2023-01-11T18:04:27.559Z,21.40
2023-01-11T18:07:04.519Z,20.58
2023-01-11T18:09:45.862Z,17.70
2023-01-11T18:12:25.523Z,15.02
2023-01-11T18:14:58.190Z,11.40
2023-01-11T18:17:30.692Z,10.75
2023-01-11T18:20:21.443Z,9.55
2023-01-11T18:23:12.103Z,11.27
2023-01-11T18:25:40.953Z,10.82
2023-01-11T18:28:27.698Z,10.43
2023-01-11T18:30:59.226Z,9.10
2023-01-11T18:33:33.139Z,9.85
2023-01-11T18:36:04.552Z,8.60
2023-01-11T18:38:34.832Z,9.98
2023-01-11T18:41:37.754Z,10.07
2023-01-11T18:44:05.254Z,9.30
2023-01-11T18:46:38.427Z,10.27
2023-01-11T18:49:11.640Z,10.48
2023-01-11T18:51:45.380Z,9.85
2023-01-11T18:54:16.501Z,10.25
2023-01-11T18:56:46.237Z,10.15
2023-01-11T18:59:13.640Z,8.77
2023-01-11T19:01:54.316Z,9.25
2023-01-11T19:04:27.308Z,8.95
2023-01-11T19:06:54.779Z,8.77
2023-01-11T19:09:25.611Z,9.57
2023-01-11T19:11:53.016Z,9.27
2023-01-11T19:14:20.496Z,9.20
2023-01-11T19:16:47.985Z,9.43
2023-01-11T19:19:15.476Z,9.60
2023-01-11T19:21:46.177Z,10.20
2023-01-11T19:24:13.726Z,9.82
2023-01-11T19:26:43.783Z,9.77
2023-01-11T19:29:21.615Z,9.05
2023-01-11T19:31:50.014Z,10.25
2023-01-11T19:34:17.559Z,9.70
2023-01-11T19:36:45.420Z,9.52
2023-01-11T19:39:15.288Z,9.48
2023-01-11T19:42:02.031Z,9.63
2023-01-11T19:44:34.792Z,9.10
2023-01-11T19:47:11.875Z,9.25
2023-01-11T19:49:41.368Z,9.10
2023-01-11T19:52:22.061Z,9.55
2023-01-11T19:54:49.513Z,9.90
2023-01-11T19:57:26.537Z,9.57
2023-01-11T19:59:56.283Z,8.77
2023-01-11T20:02:24.591Z,9.50
2023-01-11T20:04:54.387Z,9.38
2023-01-11T20:07:21.764Z,9.90
2023-01-11T20:09:49.620Z,9.40
2023-01-11T20:12:17.048Z,10.15
2023-01-11T20:14:46.726Z,9.52
2023-01-11T20:17:21.006Z,9.90
2023-01-11T20:19:54.682Z,11.05
2023-01-11T20:22:24.029Z,10.90
2023-01-11T20:24:53.906Z,11.13
2023-01-11T20:27:21.668Z,12.35
2023-01-11T20:29:51.466Z,15.18
2023-01-11T20:32:40.791Z,14.30
2023-01-11T20:35:09.072Z,14.18
2023-01-11T20:37:36.451Z,13.50
2023-01-11T20:40:04.069Z,11.38
2023-01-11T20:42:32.202Z,11.30
2023-01-11T20:44:59.768Z,10.38
2023-01-11T20:47:27.304Z,10.65
2023-01-11T20:49:54.814Z,9.65
2023-01-11T20:52:24.425Z,12.73
2023-01-11T20:54:55.073Z,9.48
2023-01-11T20:57:22.714Z,8.00
2023-01-11T20:59:54.670Z,9.18
2023-01-11T21:02:24.512Z,8.45
2023-01-11T21:04:54.722Z,7.88
2023-01-11T21:07:22.113Z,6.20
2023-01-11T21:09:49.699Z,5.15
2023-01-11T21:12:19.987Z,4.45
2023-01-11T21:14:47.287Z,4.22
2023-01-11T21:17:14.643Z,3.00
2023-01-11T21:19:43.805Z,3.28
2023-01-11T21:22:11.222Z,2.75
2023-01-11T21:24:40.920Z,2.38
2023-01-11T21:27:08.573Z,2.60
2023-01-11T21:29:36.145Z,2.50
2023-01-11T21:32:03.534Z,2.10
2023-01-11T21:34:30.943Z,2.10
2023-01-11T21:36:58.257Z,2.10
2023-01-11T21:39:27.970Z,1.88
2023-01-11T21:41:55.299Z,1.98
2023-01-11T21:44:27.402Z,1.50
2023-01-11T21:46:57.169Z,1.60
2023-01-11T21:49:26.936Z,1.40
2023-01-11T21:51:56.874Z,1.90
2023-01-11T21:54:27.098Z,1.80
2023-01-11T21:56:54.605Z,1.80
2023-01-11T21:59:22.548Z,1.50
2023-01-11T22:01:50.247Z,1.80
2023-01-11T22:04:19.575Z,1.77
2023-01-11T22:06:51.614Z,1.80
2023-01-11T22:09:21.894Z,1.90
2023-01-11T22:11:51.066Z,1.85
2023-01-11T22:14:18.554Z,1.75
2023-01-11T22:16:46.050Z,1.65
2023-01-11T22:19:14.445Z,1.60
2023-01-11T22:21:44.107Z,1.80
2023-01-11T22:24:14.236Z,1.58
2023-01-11T22:26:45.091Z,1.45
2023-01-11T22:29:12.792Z,1.93
2023-01-11T22:31:52.736Z,1.52
2023-01-11T22:34:20.400Z,1.52
2023-01-11T22:36:48.326Z,1.58
2023-01-11T22:39:19.674Z,1.60
2023-01-11T22:41:48.633Z,1.50
2023-01-11T22:44:19.452Z,1.60
2023-01-11T22:46:47.270Z,1.50
2023-01-11T22:49:15.445Z,1.88
2023-01-11T22:51:48.416Z,1.98
2023-01-11T22:54:15.983Z,1.70
2023-01-11T22:56:44.843Z,1.70
2023-01-11T22:59:12.195Z,1.80
2023-01-11T23:01:41.438Z,1.60
2023-01-11T23:04:12.623Z,1.58
2023-01-11T23:06:42.602Z,1.70
2023-01-11T23:09:16.237Z,1.50
2023-01-11T23:12:03.620Z,1.60
2023-01-11T23:14:33.121Z,1.40
2023-01-11T23:17:06.917Z,1.52
2023-01-11T23:19:39.983Z,1.45
2023-01-11T23:22:08.520Z,1.65
2023-01-11T23:24:37.164Z,1.50
2023-01-11T23:27:04.900Z,1.52
2023-01-11T23:29:37.199Z,1.60
2023-01-11T23:32:04.822Z,1.60
2023-01-11T23:34:32.201Z,1.80
2023-01-11T23:36:59.610Z,1.67
2023-01-11T23:39:27.028Z,1.67
2023-01-11T23:42:14.970Z,1.77
2023-01-11T23:44:42.341Z,1.80
2023-01-11T23:47:22.082Z,2.00
2023-01-11T23:49:51.652Z,1.80
2023-01-11T23:52:21.044Z,2.20
2023-01-11T23:54:48.449Z,1.98
2023-01-11T23:57:16.436Z,1.50
2023-01-11T23:59:48.735Z,1.48
